createdAt,value
2023-04-07T00:00:06.203Z,5.70
2023-04-07T00:02:33.128Z,5.47
2023-04-07T00:05:00.096Z,5.88
2023-04-07T00:07:26.944Z,5.68
2023-04-07T00:09:53.586Z,6.40
2023-04-07T00:12:20.588Z,5.80
2023-04-07T00:14:47.196Z,6.32
2023-04-07T00:17:13.916Z,5.80
2023-04-07T00:19:40.576Z,5.95
2023-04-07T00:22:07.193Z,5.88
2023-04-07T00:24:34.604Z,5.80
2023-04-07T00:27:02.087Z,6.40
2023-04-07T00:29:28.733Z,6.70
2023-04-07T00:31:55.953Z,5.75
2023-04-07T00:34:22.617Z,5.63
2023-04-07T00:36:52.166Z,5.22
2023-04-07T00:39:19.382Z,5.63
2023-04-07T00:41:46.904Z,6.10
2023-04-07T00:44:13.958Z,5.85
2023-04-07T00:46:41.451Z,6.78
2023-04-07T00:49:11.046Z,6.13
2023-04-07T00:51:38.168Z,6.22
2023-04-07T00:54:05.493Z,5.80
2023-04-07T00:56:33.172Z,6.22
2023-04-07T00:58:59.801Z,5.93
2023-04-07T01:01:35.810Z,6.80
2023-04-07T01:04:09.679Z,6.20
2023-04-07T01:06:43.857Z,5.85
2023-04-07T01:09:38.505Z,6.47
2023-04-07T01:12:40.931Z,6.43
2023-04-07T01:15:12.759Z,6.38
2023-04-07T01:20:16.409Z,6.53
2023-04-07T01:22:51.248Z,7.00
2023-04-07T01:25:59.333Z,7.13
2023-04-07T01:28:38.203Z,6.70
2023-04-07T01:31:06.184Z,6.60
2023-04-07T01:33:35.468Z,7.68
2023-04-07T01:36:05.078Z,7.80
2023-04-07T01:38:33.214Z,7.80
2023-04-07T01:41:01.815Z,8.13
2023-04-07T01:43:29.146Z,7.50
2023-04-07T01:45:57.129Z,7.60
2023-04-07T01:48:24.861Z,7.28
2023-04-07T01:50:51.987Z,8.18
2023-04-07T01:53:19.402Z,7.32
2023-04-07T01:55:46.251Z,7.10
2023-04-07T01:58:12.925Z,7.43
2023-04-07T02:00:39.745Z,7.15
2023-04-07T02:03:20.645Z,6.53
2023-04-07T02:05:55.519Z,6.50
2023-04-07T02:08:24.464Z,5.72
2023-04-07T02:10:51.671Z,6.88
2023-04-07T02:13:20.701Z,6.43
2023-04-07T02:15:49.175Z,5.93
2023-04-07T02:18:18.534Z,6.25
2023-04-07T02:20:46.234Z,6.18
2023-04-07T02:23:13.152Z,5.95
2023-04-07T02:25:39.929Z,5.70
2023-04-07T02:28:07.184Z,5.88
2023-04-07T02:30:34.875Z,5.80
2023-04-07T02:33:01.957Z,5.80
2023-04-07T02:35:28.638Z,5.93
2023-04-07T02:37:55.352Z,6.40
2023-04-07T02:40:22.077Z,6.53
2023-04-07T02:42:48.734Z,6.18
2023-04-07T02:45:15.999Z,6.30
2023-04-07T02:47:42.810Z,6.63
2023-04-07T02:50:10.000Z,5.30
2023-04-07T02:52:36.632Z,5.15
2023-04-07T02:55:03.627Z,5.78
2023-04-07T02:57:30.316Z,5.15
2023-04-07T02:59:58.131Z,5.47
2023-04-07T03:02:25.361Z,4.88
2023-04-07T03:04:53.041Z,6.10
2023-04-07T03:07:19.688Z,5.85
2023-04-07T03:09:46.545Z,5.07
2023-04-07T03:12:13.241Z,4.95
2023-04-07T03:14:39.920Z,4.65
2023-04-07T03:17:06.846Z,5.40
2023-04-07T03:19:33.629Z,4.93
2023-04-07T03:22:00.468Z,4.93
2023-04-07T03:24:27.230Z,4.80
2023-04-07T03:26:53.845Z,4.93
2023-04-07T03:29:20.546Z,5.80
2023-04-07T03:31:47.260Z,5.00
2023-04-07T03:34:14.050Z,5.00
2023-04-07T03:36:40.673Z,4.28
2023-04-07T03:39:07.314Z,4.60
2023-04-07T03:41:33.960Z,4.22
2023-04-07T03:44:00.646Z,4.68
2023-04-07T03:46:27.418Z,4.53
2023-04-07T03:48:54.260Z,4.88
2023-04-07T03:51:21.076Z,5.75
2023-04-07T03:53:47.698Z,5.40
2023-04-07T03:56:14.461Z,6.45
2023-04-07T03:58:42.782Z,6.65
2023-04-07T04:01:09.476Z,6.55
2023-04-07T04:03:36.383Z,6.47
2023-04-07T04:06:03.300Z,7.00
2023-04-07T04:08:30.631Z,7.13
2023-04-07T04:10:57.319Z,7.57
2023-04-07T04:13:24.004Z,8.07
2023-04-07T04:15:50.684Z,7.78
2023-04-07T04:18:17.333Z,8.30
2023-04-07T04:20:43.978Z,7.68
2023-04-07T04:23:10.709Z,7.55
2023-04-07T04:25:39.604Z,7.93
2023-04-07T04:28:06.782Z,6.57
2023-04-07T04:30:33.451Z,7.57
2023-04-07T04:33:00.211Z,8.50
2023-04-07T04:35:27.185Z,7.72
2023-04-07T04:37:53.845Z,7.55
2023-04-07T04:40:20.856Z,7.63
2023-04-07T04:42:47.564Z,6.85
2023-04-07T04:45:14.216Z,7.75
2023-04-07T04:47:41.397Z,7.70
2023-04-07T04:50:08.419Z,7.00
2023-04-07T04:52:35.451Z,6.72
2023-04-07T04:55:02.468Z,7.55
2023-04-07T04:57:29.061Z,7.55
2023-04-07T04:59:55.718Z,6.43
2023-04-07T05:02:22.418Z,6.68
2023-04-07T05:04:49.256Z,6.55
2023-04-07T05:07:16.102Z,6.72
2023-04-07T05:09:42.663Z,6.22
2023-04-07T05:12:09.397Z,6.63
2023-04-07T05:14:36.093Z,5.72
2023-04-07T05:17:02.762Z,6.50
2023-04-07T05:19:29.800Z,6.22
2023-04-07T05:21:56.625Z,6.50
2023-04-07T05:24:23.312Z,6.68
2023-04-07T05:26:49.903Z,5.88
2023-04-07T05:29:16.489Z,5.47
2023-04-07T05:31:43.237Z,6.10
2023-04-07T05:34:10.394Z,5.88
2023-04-07T05:36:37.044Z,5.85
2023-04-07T05:39:03.768Z,5.47
2023-04-07T05:41:30.417Z,5.32
2023-04-07T05:43:57.010Z,6.15
2023-04-07T05:46:23.758Z,5.30
2023-04-07T05:48:50.449Z,6.40
2023-04-07T05:51:17.034Z,5.60
2023-04-07T05:53:43.691Z,5.25
2023-04-07T05:56:10.347Z,5.97
2023-04-07T05:58:37.185Z,6.15
2023-04-07T06:01:03.895Z,5.40
2023-04-07T06:03:31.592Z,5.57
2023-04-07T06:05:58.592Z,5.40
2023-04-07T06:08:25.363Z,5.28
2023-04-07T06:10:52.104Z,5.65
2023-04-07T06:13:18.722Z,4.80
2023-04-07T06:15:45.358Z,5.97
2023-04-07T06:18:11.979Z,6.15
2023-04-07T06:20:38.636Z,7.03
2023-04-07T06:23:05.373Z,6.80
2023-04-07T06:25:32.016Z,6.93
2023-04-07T06:27:58.688Z,6.85
2023-04-07T06:30:25.522Z,7.05
2023-04-07T06:32:52.211Z,6.78
2023-04-07T06:35:18.896Z,7.20
2023-04-07T06:37:45.609Z,7.13
2023-04-07T06:40:12.250Z,6.75
2023-04-07T06:42:38.923Z,6.30
2023-04-07T06:45:06.341Z,6.63
2023-04-07T06:47:33.043Z,6.22
2023-04-07T06:49:59.890Z,6.82
2023-04-07T06:52:26.513Z,6.07
2023-04-07T06:54:53.180Z,5.93
2023-04-07T06:57:19.827Z,5.43
2023-04-07T06:59:47.090Z,5.75
2023-04-07T07:02:13.722Z,5.05
2023-04-07T07:04:40.414Z,5.50
2023-04-07T07:07:06.988Z,5.50
2023-04-07T07:09:33.575Z,5.25
2023-04-07T07:12:03.995Z,4.97
2023-04-07T07:14:31.109Z,4.80
2023-04-07T07:16:57.882Z,5.10
2023-04-07T07:19:24.548Z,5.47
2023-04-07T07:21:51.191Z,5.57
2023-04-07T07:24:17.837Z,4.80
2023-04-07T07:26:45.925Z,5.35
2023-04-07T07:29:12.657Z,5.38
2023-04-07T07:31:39.332Z,5.55
2023-04-07T07:34:06.756Z,5.35
2023-04-07T07:36:33.474Z,4.45
2023-04-07T07:39:00.419Z,5.32
2023-04-07T07:41:27.452Z,5.15
2023-04-07T07:43:54.314Z,5.13
2023-04-07T07:46:21.020Z,4.95
2023-04-07T07:48:47.827Z,5.45
2023-04-07T07:51:14.496Z,5.28
2023-04-07T07:53:41.297Z,4.50
2023-04-07T07:56:07.880Z,4.32
2023-04-07T07:58:34.805Z,4.85
2023-04-07T08:01:01.520Z,5.20
2023-04-07T08:03:28.291Z,4.55
2023-04-07T08:05:55.020Z,5.13
2023-04-07T08:08:21.581Z,4.43
2023-04-07T08:10:48.910Z,4.30
2023-04-07T08:13:15.922Z,5.18
2023-04-07T08:15:42.705Z,4.03
2023-04-07T08:18:09.477Z,4.55
2023-04-07T08:20:36.172Z,4.05
2023-04-07T08:23:02.812Z,3.72
2023-04-07T08:25:29.914Z,3.67
2023-04-07T08:27:56.700Z,4.28
2023-04-07T08:30:23.486Z,4.18
2023-04-07T08:32:50.354Z,3.70
2023-04-07T08:35:16.950Z,3.28
2023-04-07T08:37:44.389Z,3.35
2023-04-07T08:40:11.892Z,2.85
2023-04-07T08:42:42.379Z,2.92
2023-04-07T08:45:09.952Z,2.47
2023-04-07T08:47:37.653Z,3.13
2023-04-07T08:50:09.976Z,2.80
2023-04-07T08:52:49.964Z,2.20
2023-04-07T08:55:16.754Z,2.55
2023-04-07T08:57:43.616Z,3.20
2023-04-07T09:00:10.925Z,2.63
2023-04-07T09:02:47.888Z,2.80
2023-04-07T09:05:14.878Z,2.25
2023-04-07T09:07:43.142Z,2.53
2023-04-07T09:10:10.153Z,2.10
2023-04-07T09:12:37.209Z,2.28
2023-04-07T09:15:06.087Z,2.55
2023-04-07T09:17:32.763Z,2.92
2023-04-07T09:20:00.977Z,2.53
2023-04-07T09:22:47.992Z,2.40
2023-04-07T09:25:16.391Z,2.60
2023-04-07T09:27:55.723Z,2.20
2023-04-07T09:30:22.779Z,2.60
2023-04-07T09:32:49.500Z,2.10
2023-04-07T09:35:16.331Z,1.65
2023-04-07T09:37:43.565Z,1.92
2023-04-07T09:40:10.880Z,2.10
2023-04-07T09:42:46.298Z,2.00
2023-04-07T09:45:18.593Z,2.33
2023-04-07T09:47:54.322Z,1.97
2023-04-07T09:50:39.760Z,2.50
2023-04-07T09:53:07.059Z,2.10
2023-04-07T09:55:34.030Z,2.30
2023-04-07T09:58:01.499Z,2.42
2023-04-07T10:00:28.152Z,2.45
2023-04-07T10:02:56.445Z,2.92
2023-04-07T10:05:23.856Z,3.25
2023-04-07T10:07:50.724Z,2.88
2023-04-07T10:10:17.552Z,3.78
2023-04-07T10:12:45.421Z,2.60
2023-04-07T10:15:18.340Z,2.65
2023-04-07T10:17:48.255Z,2.88
2023-04-07T10:20:20.722Z,2.53
2023-04-07T10:22:50.212Z,3.17
2023-04-07T10:25:19.562Z,2.90
2023-04-07T10:27:54.703Z,3.10
2023-04-07T10:30:27.971Z,3.63
2023-04-07T10:32:55.207Z,3.10
2023-04-07T10:35:22.823Z,3.65
2023-04-07T10:38:16.665Z,3.30
2023-04-07T10:40:43.714Z,3.17
2023-04-07T10:43:15.357Z,4.18
2023-04-07T10:45:59.217Z,4.97
2023-04-07T10:48:28.563Z,4.90
2023-04-07T10:51:15.328Z,4.90
2023-04-07T10:54:23.190Z,6.53
2023-04-07T10:57:10.107Z,4.88
2023-04-07T10:59:38.812Z,4.70
2023-04-07T11:02:14.662Z,5.55
2023-04-07T11:04:46.357Z,5.22
2023-04-07T11:07:14.895Z,4.47
2023-04-07T11:09:41.575Z,4.07
2023-04-07T11:12:08.486Z,4.00
2023-04-07T11:14:37.645Z,4.55
2023-04-07T11:17:04.589Z,4.93
2023-04-07T11:19:34.320Z,4.93
2023-04-07T11:24:49.113Z,3.95
2023-04-07T11:27:16.569Z,3.80
2023-04-07T11:29:43.847Z,3.50
2023-04-07T11:32:13.089Z,3.03
2023-04-07T11:34:40.428Z,2.60
2023-04-07T11:37:21.351Z,2.80
2023-04-07T11:40:00.223Z,3.00
2023-04-07T11:42:34.508Z,2.83
2023-04-07T11:45:01.294Z,2.63
2023-04-07T11:47:36.058Z,3.63
2023-04-07T11:50:03.133Z,2.70
2023-04-07T11:52:40.159Z,2.60
2023-04-07T11:55:07.299Z,2.60
2023-04-07T11:57:33.993Z,2.95
2023-04-07T12:00:12.650Z,3.25
2023-04-07T12:02:39.470Z,2.25
2023-04-07T12:05:07.455Z,2.47
2023-04-07T12:07:34.209Z,2.10
2023-04-07T12:10:19.053Z,2.75
2023-04-07T12:12:46.651Z,3.08
2023-04-07T12:15:13.750Z,3.85
2023-04-07T12:17:45.756Z,3.22
2023-04-07T12:20:12.982Z,3.50
2023-04-07T12:22:40.117Z,2.97
2023-04-07T12:25:07.089Z,2.42
2023-04-07T12:27:42.674Z,1.90
2023-04-07T12:30:10.722Z,2.58
2023-04-07T12:32:37.792Z,2.53
2023-04-07T12:35:05.431Z,3.10
2023-04-07T12:37:32.961Z,3.67
2023-04-07T12:39:59.956Z,3.47
2023-04-07T12:42:27.183Z,4.07
2023-04-07T12:44:53.866Z,3.10
2023-04-07T12:47:20.824Z,3.40
2023-04-07T12:49:49.268Z,3.47
2023-04-07T12:52:16.801Z,4.20
2023-04-07T12:54:44.508Z,4.45
2023-04-07T12:57:11.456Z,4.15
2023-04-07T12:59:38.181Z,3.20
2023-04-07T13:02:05.103Z,3.63
2023-04-07T13:04:32.199Z,4.05
2023-04-07T13:06:59.661Z,3.72
2023-04-07T13:09:26.297Z,4.50
2023-04-07T13:11:52.923Z,4.07
2023-04-07T13:14:19.628Z,3.83
2023-04-07T13:16:46.306Z,3.72
2023-04-07T13:19:13.098Z,3.95
2023-04-07T13:24:09.373Z,4.40
2023-04-07T13:26:36.172Z,3.95
2023-04-07T13:29:02.846Z,3.90
2023-04-07T13:31:30.372Z,3.88
2023-04-07T13:33:57.051Z,3.97
2023-04-07T13:36:24.775Z,4.65
2023-04-07T13:38:51.420Z,4.70
2023-04-07T13:41:18.070Z,4.28
2023-04-07T13:43:44.708Z,4.38
2023-04-07T13:46:27.309Z,4.70
2023-04-07T13:48:55.266Z,4.75
2023-04-07T13:51:22.029Z,5.40
2023-04-07T13:53:48.994Z,5.50
2023-04-07T13:56:15.832Z,5.75
2023-04-07T13:58:42.533Z,6.00
2023-04-07T14:01:09.289Z,6.28
2023-04-07T14:03:35.988Z,5.63
2023-04-07T14:06:02.946Z,5.90
2023-04-07T14:08:29.720Z,4.95
2023-04-07T14:10:56.529Z,4.75
2023-04-07T14:13:23.213Z,4.55
2023-04-07T14:15:50.219Z,5.15
2023-04-07T14:18:17.498Z,5.30
2023-04-07T14:20:44.529Z,4.90
2023-04-07T14:23:11.556Z,5.40
2023-04-07T14:25:38.242Z,5.10
2023-04-07T14:28:04.886Z,5.55
2023-04-07T14:30:31.798Z,6.22
2023-04-07T14:32:58.514Z,5.85
2023-04-07T14:35:26.989Z,5.45
2023-04-07T14:37:55.424Z,6.80
2023-04-07T14:40:22.085Z,6.45
2023-04-07T14:42:48.997Z,6.78
2023-04-07T14:45:17.825Z,7.57
2023-04-07T14:47:44.577Z,6.80
2023-04-07T14:50:11.469Z,6.45
2023-04-07T14:52:38.141Z,5.43
2023-04-07T14:55:05.335Z,5.20
2023-04-07T14:57:32.059Z,5.97
2023-04-07T14:59:58.666Z,7.82
2023-04-07T15:02:25.435Z,7.82
2023-04-07T15:04:52.402Z,8.80
2023-04-07T15:07:19.105Z,8.70
2023-04-07T15:09:47.780Z,6.82
2023-04-07T15:12:14.441Z,7.53
2023-04-07T15:14:41.028Z,12.73
2023-04-07T15:17:07.684Z,10.93
2023-04-07T15:19:34.299Z,8.45
2023-04-07T15:22:00.907Z,7.68
2023-04-07T15:24:27.751Z,6.28
2023-04-07T15:26:54.370Z,6.50
2023-04-07T15:29:21.098Z,7.28
2023-04-07T15:31:47.800Z,6.90
2023-04-07T15:34:14.449Z,5.72
2023-04-07T15:36:41.076Z,5.53
2023-04-07T15:39:07.733Z,7.10
2023-04-07T15:41:34.407Z,13.45
2023-04-07T15:44:01.831Z,7.57
2023-04-07T15:46:28.884Z,10.90
2023-04-07T15:48:55.931Z,12.43
2023-04-07T15:51:22.726Z,9.88
2023-04-07T15:53:49.754Z,17.33
2023-04-07T15:56:16.715Z,10.80
2023-04-07T15:58:45.113Z,23.55
2023-04-07T16:01:12.040Z,27.13
2023-04-07T16:03:38.778Z,36.45
2023-04-07T16:06:05.858Z,16.58
2023-04-07T16:08:32.477Z,11.05
2023-04-07T16:10:59.129Z,11.00
2023-04-07T16:13:26.186Z,13.68
2023-04-07T16:15:57.263Z,19.83
2023-04-07T16:18:24.024Z,11.68
2023-04-07T16:20:50.759Z,21.75
2023-04-07T16:23:17.504Z,10.98
2023-04-07T16:25:44.173Z,9.82
2023-04-07T16:28:10.855Z,8.93
2023-04-07T16:30:37.466Z,8.25
2023-04-07T16:33:04.286Z,8.63
2023-04-07T16:35:31.759Z,9.02
2023-04-07T16:38:04.058Z,15.98
2023-04-07T16:40:31.111Z,12.10
2023-04-07T16:42:57.825Z,9.20
2023-04-07T16:45:24.504Z,9.95
2023-04-07T16:47:51.199Z,11.52
2023-04-07T16:50:18.088Z,10.48
2023-04-07T16:52:44.725Z,11.68
2023-04-07T16:55:11.376Z,10.90
2023-04-07T16:57:38.033Z,15.40
2023-04-07T17:00:05.862Z,15.50
2023-04-07T17:02:33.298Z,12.95
2023-04-07T17:05:00.049Z,12.80
2023-04-07T17:07:27.258Z,12.55
2023-04-07T17:09:54.022Z,13.02
2023-04-07T17:12:20.671Z,13.82
2023-04-07T17:14:47.327Z,13.45
2023-04-07T17:17:14.076Z,15.07
2023-04-07T17:19:40.878Z,14.18
2023-04-07T17:22:07.462Z,12.13
2023-04-07T17:24:34.137Z,15.95
2023-04-07T17:27:00.876Z,16.27
2023-04-07T17:29:30.029Z,16.65
2023-04-07T17:31:56.741Z,16.92
2023-04-07T17:34:23.454Z,15.95
2023-04-07T17:36:50.946Z,13.82
2023-04-07T17:39:18.060Z,15.43
2023-04-07T17:41:46.747Z,14.13
2023-04-07T17:44:13.556Z,14.73
2023-04-07T17:46:40.311Z,13.38
2023-04-07T17:49:07.199Z,13.77
2023-04-07T17:51:33.956Z,13.90
2023-04-07T17:54:00.671Z,15.75
2023-04-07T17:56:27.319Z,15.15
2023-04-07T17:58:54.030Z,13.27
2023-04-07T18:01:20.985Z,17.50
2023-04-07T18:03:48.385Z,22.70
2023-04-07T18:06:16.874Z,16.33
2023-04-07T18:08:46.601Z,14.20
2023-04-07T18:11:13.742Z,15.60
2023-04-07T18:13:40.457Z,15.98
2023-04-07T18:16:11.777Z,14.88
2023-04-07T18:18:38.612Z,17.65
2023-04-07T18:21:06.882Z,21.80
2023-04-07T18:23:33.865Z,28.90
2023-04-07T18:26:05.104Z,24.58
2023-04-07T18:28:32.026Z,20.23
2023-04-07T18:31:07.515Z,24.77
2023-04-07T18:33:35.248Z,22.85
2023-04-07T18:36:04.553Z,19.90
2023-04-07T18:38:31.542Z,15.77
2023-04-07T18:40:58.251Z,14.85
2023-04-07T18:43:26.575Z,15.27
2023-04-07T18:45:53.892Z,15.40
2023-04-07T18:48:21.608Z,14.98
2023-04-07T18:50:52.325Z,15.57
2023-04-07T18:53:20.392Z,15.27
2023-04-07T18:55:47.768Z,15.68
2023-04-07T18:58:14.691Z,15.77
2023-04-07T19:00:42.431Z,18.50
2023-04-07T19:03:09.217Z,17.05
2023-04-07T19:05:38.957Z,17.85
2023-04-07T19:08:06.073Z,16.30
2023-04-07T19:10:32.815Z,15.95
2023-04-07T19:13:00.642Z,15.75
2023-04-07T19:15:28.788Z,15.05
2023-04-07T19:17:55.727Z,15.05
2023-04-07T19:20:22.321Z,15.02
2023-04-07T19:22:48.963Z,16.00
2023-04-07T19:25:15.743Z,16.08
2023-04-07T19:27:42.620Z,16.15
2023-04-07T19:30:09.761Z,16.30
2023-04-07T19:32:36.707Z,16.50
2023-04-07T19:35:03.410Z,18.55
2023-04-07T19:37:30.198Z,17.30
2023-04-07T19:40:02.996Z,17.58
2023-04-07T19:42:30.562Z,17.52
2023-04-07T19:45:00.165Z,17.75
2023-04-07T19:47:29.914Z,18.80
2023-04-07T19:49:56.839Z,17.88
2023-04-07T19:52:23.574Z,17.67
2023-04-07T19:54:50.589Z,18.02
2023-04-07T19:57:17.362Z,17.35
2023-04-07T19:59:43.940Z,18.45
2023-04-07T20:02:11.319Z,17.67
2023-04-07T20:04:38.181Z,16.98
2023-04-07T20:07:04.837Z,17.40
2023-04-07T20:09:31.707Z,19.15
2023-04-07T20:11:59.386Z,17.73
2023-04-07T20:14:26.016Z,18.85
2023-04-07T20:16:53.753Z,18.08
2023-04-07T20:19:20.965Z,18.48
2023-04-07T20:21:47.634Z,17.50
2023-04-07T20:24:14.490Z,18.30
2023-04-07T20:26:41.084Z,18.33
2023-04-07T20:29:08.179Z,17.25
2023-04-07T20:31:34.775Z,17.70
2023-04-07T20:34:01.414Z,19.40
2023-04-07T20:36:28.040Z,18.58
2023-04-07T20:38:54.740Z,17.92
2023-04-07T20:41:22.390Z,18.58
2023-04-07T20:43:51.776Z,17.70
2023-04-07T20:46:19.288Z,17.58
2023-04-07T20:48:46.051Z,19.13
2023-04-07T20:51:13.452Z,19.52
2023-04-07T20:53:40.653Z,18.77
2023-04-07T20:56:07.311Z,17.92
2023-04-07T20:58:33.975Z,18.80
2023-04-07T21:01:01.322Z,18.88
2023-04-07T21:03:28.975Z,19.48
2023-04-07T21:05:56.884Z,20.00
2023-04-07T21:08:24.454Z,21.98
2023-04-07T21:10:52.328Z,19.90
2023-04-07T21:13:19.677Z,19.98
2023-04-07T21:15:46.345Z,21.98
2023-04-07T21:18:13.031Z,21.80
2023-04-07T21:20:40.277Z,22.20
2023-04-07T21:23:08.926Z,23.20
2023-04-07T21:25:38.656Z,23.85
2023-04-07T21:28:05.811Z,23.25
2023-04-07T21:30:33.201Z,23.52
2023-04-07T21:33:00.097Z,24.15
2023-04-07T21:35:28.703Z,22.08
2023-04-07T21:37:56.021Z,23.67
2023-04-07T21:40:22.783Z,23.10
2023-04-07T21:42:49.589Z,23.98
2023-04-07T21:45:16.289Z,23.83
2023-04-07T21:47:43.030Z,22.33
2023-04-07T21:50:10.250Z,23.08
2023-04-07T21:52:36.958Z,23.60
2023-04-07T21:55:04.021Z,23.73
2023-04-07T21:57:30.782Z,24.52
2023-04-07T21:59:57.490Z,25.50
2023-04-07T22:02:24.243Z,24.17
2023-04-07T22:04:51.059Z,25.52
2023-04-07T22:07:17.748Z,24.10
2023-04-07T22:09:44.442Z,25.80
2023-04-07T22:12:11.102Z,24.52
2023-04-07T22:14:37.848Z,25.40
2023-04-07T22:17:04.494Z,24.10
2023-04-07T22:19:31.090Z,24.00
2023-04-07T22:21:57.750Z,24.02
2023-04-07T22:24:24.395Z,23.95
2023-04-07T22:26:53.762Z,24.20
2023-04-07T22:29:21.031Z,24.83
2023-04-07T22:31:47.660Z,23.92
2023-04-07T22:34:14.388Z,22.15
2023-04-07T22:36:41.056Z,23.15
2023-04-07T22:39:08.344Z,22.88
2023-04-07T22:41:35.073Z,21.75
2023-04-07T22:44:01.690Z,21.02
2023-04-07T22:46:28.406Z,21.33
2023-04-07T22:48:55.592Z,21.55
2023-04-07T22:51:22.236Z,21.33
2023-04-07T22:53:49.310Z,21.25
2023-04-07T22:56:16.307Z,21.02
2023-04-07T22:58:42.895Z,20.30
2023-04-07T23:01:09.569Z,18.77
2023-04-07T23:03:36.341Z,17.27
2023-04-07T23:06:03.252Z,19.00
2023-04-07T23:08:29.923Z,17.55
2023-04-07T23:10:56.547Z,16.33
2023-04-07T23:13:23.202Z,16.48
2023-04-07T23:15:49.922Z,17.00
2023-04-07T23:18:16.652Z,16.02
2023-04-07T23:20:51.216Z,16.48
2023-04-07T23:23:18.095Z,16.42
2023-04-07T23:25:45.581Z,16.17
2023-04-07T23:28:12.151Z,16.70
2023-04-07T23:30:38.816Z,17.00
2023-04-07T23:33:05.441Z,17.67
2023-04-07T23:35:32.043Z,16.88
2023-04-07T23:37:58.748Z,16.20
2023-04-07T23:40:25.425Z,16.17
2023-04-07T23:42:52.051Z,15.95
2023-04-07T23:45:20.511Z,15.77
2023-04-07T23:47:47.372Z,16.05
2023-04-07T23:50:14.236Z,15.57
2023-04-07T23:52:40.944Z,15.52
2023-04-07T23:55:07.958Z,15.60
2023-04-07T23:57:34.567Z,14.88
